WC StCyr

Date de la prise de vue : 18/07/2024 00:09:32


N'ayant pas de Météo à StCyr, voilà les METAR et TAF de Villacoublay :
2024/07/17 22:00 LFPV 172200Z AUTO 09005KT CAVOK 21/12 Q1021 NOSIG
2024/07/17 21:12 TAF TAF LFPV 172000Z 1721/1821 08004KT CAVOK TX30/1816Z TN18/1804Z